createdAt,value
2018-08-16T00:01:17.708Z,68.20
2018-08-16T00:03:46.135Z,68.30
2018-08-16T00:06:14.666Z,68.20
2018-08-16T00:08:43.213Z,68.20
2018-08-16T00:11:11.859Z,68.20
2018-08-16T00:13:40.355Z,68.30
2018-08-16T00:16:08.902Z,68.30
2018-08-16T00:18:37.376Z,68.40
2018-08-16T00:21:06.014Z,68.40
2018-08-16T00:23:34.560Z,68.30
2018-08-16T00:26:03.417Z,68.40
2018-08-16T00:28:31.823Z,68.40
2018-08-16T00:31:00.227Z,68.60
2018-08-16T00:33:28.667Z,68.70
2018-08-16T00:35:57.221Z,68.60
2018-08-16T00:38:25.650Z,68.80
2018-08-16T00:40:53.994Z,68.90
2018-08-16T00:43:22.445Z,68.90
2018-08-16T00:45:50.774Z,69.00
2018-08-16T00:48:19.142Z,69.00
2018-08-16T00:50:47.570Z,69.00
2018-08-16T00:53:16.023Z,69.10
2018-08-16T00:55:44.414Z,69.20
2018-08-16T00:58:12.768Z,69.10
2018-08-16T01:00:41.279Z,69.30
2018-08-16T01:03:09.970Z,69.50
2018-08-16T01:05:38.315Z,69.40
2018-08-16T01:08:06.822Z,69.50
2018-08-16T01:10:35.308Z,69.60
2018-08-16T01:13:03.816Z,69.80
2018-08-16T01:15:32.171Z,69.80
2018-08-16T01:18:00.638Z,70.00
2018-08-16T01:20:28.996Z,69.90
2018-08-16T01:22:57.460Z,70.00
2018-08-16T01:25:27.377Z,70.00
2018-08-16T01:27:55.955Z,70.00
2018-08-16T01:30:24.460Z,70.20
2018-08-16T01:32:52.916Z,70.30
2018-08-16T01:35:21.409Z,70.40
2018-08-16T01:37:49.775Z,70.50
2018-08-16T01:40:18.203Z,70.60
2018-08-16T01:42:46.644Z,70.50
2018-08-16T01:45:15.142Z,70.40
2018-08-16T01:47:43.542Z,70.30
2018-08-16T01:50:11.926Z,70.50
2018-08-16T01:52:40.617Z,70.60
2018-08-16T01:55:09.182Z,70.60
2018-08-16T01:57:37.619Z,70.60
2018-08-16T02:00:08.431Z,70.60
2018-08-16T02:02:36.832Z,70.40
2018-08-16T02:05:06.159Z,70.90
2018-08-16T02:07:34.512Z,70.30
2018-08-16T02:10:03.127Z,70.40
2018-08-16T02:12:31.621Z,70.50
2018-08-16T02:14:59.997Z,70.50
2018-08-16T02:17:28.362Z,70.40
2018-08-16T02:19:56.834Z,70.30
2018-08-16T02:22:25.294Z,70.40
2018-08-16T02:24:53.690Z,70.80
2018-08-16T02:27:22.033Z,70.50
2018-08-16T02:29:50.533Z,70.60
2018-08-16T02:32:18.883Z,70.60
2018-08-16T02:34:47.253Z,70.70
2018-08-16T02:37:15.673Z,70.60
2018-08-16T02:39:44.044Z,70.60
2018-08-16T02:42:12.467Z,70.50
2018-08-16T02:44:41.240Z,70.50
2018-08-16T02:47:09.619Z,70.60
2018-08-16T02:49:38.194Z,70.90
2018-08-16T02:52:06.547Z,71.50
2018-08-16T02:54:34.924Z,71.00
2018-08-16T02:57:04.118Z,70.90
2018-08-16T02:59:32.600Z,70.60
2018-08-16T03:02:00.978Z,70.60
2018-08-16T03:04:29.563Z,70.80
2018-08-16T03:06:57.917Z,70.70
2018-08-16T03:09:26.327Z,70.60
2018-08-16T03:11:54.835Z,70.60
2018-08-16T03:14:23.167Z,70.70
2018-08-16T03:16:51.526Z,70.50
2018-08-16T03:19:19.943Z,70.60
2018-08-16T03:21:48.342Z,70.50
2018-08-16T03:24:16.893Z,70.40
2018-08-16T03:26:45.311Z,70.30
2018-08-16T03:29:13.661Z,70.20
2018-08-16T03:31:42.155Z,70.30
2018-08-16T03:34:10.627Z,70.30
2018-08-16T03:36:39.030Z,70.30
2018-08-16T03:39:08.486Z,70.50
2018-08-16T03:41:37.291Z,70.40
2018-08-16T03:44:06.209Z,70.20
2018-08-16T03:46:34.648Z,70.40
2018-08-16T03:49:03.055Z,70.50
2018-08-16T03:51:31.390Z,70.60
2018-08-16T03:53:59.972Z,70.50
2018-08-16T03:56:28.406Z,70.50
2018-08-16T03:58:56.938Z,70.50
2018-08-16T04:01:25.319Z,70.50
2018-08-16T04:03:53.752Z,70.60
2018-08-16T04:06:22.294Z,70.60
2018-08-16T04:08:50.719Z,71.30
2018-08-16T04:11:19.148Z,70.50
2018-08-16T04:13:48.306Z,70.50
2018-08-16T04:16:16.681Z,70.50
2018-08-16T04:18:45.104Z,71.40
2018-08-16T04:21:13.479Z,70.80
2018-08-16T04:23:41.871Z,70.70
2018-08-16T04:26:10.250Z,70.70
2018-08-16T04:28:38.717Z,70.80
2018-08-16T04:31:07.119Z,70.90
2018-08-16T04:33:35.598Z,70.90
2018-08-16T04:36:04.058Z,70.80
2018-08-16T04:38:32.420Z,71.10
2018-08-16T04:41:00.788Z,71.00
2018-08-16T04:43:29.341Z,71.20
2018-08-16T04:45:57.823Z,71.20
2018-08-16T04:48:26.244Z,71.20
2018-08-16T04:50:54.633Z,71.20
2018-08-16T04:53:23.010Z,71.20
2018-08-16T04:55:51.490Z,71.40
2018-08-16T04:58:19.876Z,71.50
2018-08-16T05:00:48.387Z,71.90
2018-08-16T05:03:16.931Z,72.20
2018-08-16T05:05:45.350Z,72.60
2018-08-16T05:08:13.712Z,73.00
2018-08-16T05:10:42.187Z,73.20
2018-08-16T05:13:10.599Z,73.30
2018-08-16T05:15:38.988Z,73.30
2018-08-16T05:18:07.422Z,73.60
2018-08-16T05:20:35.823Z,73.60
2018-08-16T05:23:04.274Z,73.60
2018-08-16T05:25:32.652Z,73.60
2018-08-16T05:28:01.028Z,73.80
2018-08-16T05:30:29.405Z,73.90
2018-08-16T05:32:57.774Z,73.90
2018-08-16T05:35:26.313Z,74.00
2018-08-16T05:37:54.748Z,74.10
2018-08-16T05:40:23.151Z,74.00
2018-08-16T05:42:51.542Z,74.10
2018-08-16T05:45:19.921Z,74.20
2018-08-16T05:47:48.270Z,74.40
2018-08-16T05:50:16.832Z,74.40
2018-08-16T05:52:45.314Z,74.80
2018-08-16T05:55:13.743Z,75.00
2018-08-16T05:57:42.324Z,75.10
2018-08-16T06:00:12.964Z,75.10
2018-08-16T06:02:42.207Z,75.20
2018-08-16T06:05:11.966Z,75.20
2018-08-16T06:07:40.677Z,74.90
2018-08-16T06:10:10.312Z,74.80
2018-08-16T06:12:38.846Z,74.40
2018-08-16T06:15:08.525Z,74.50
2018-08-16T06:17:36.968Z,74.00
2018-08-16T06:20:07.508Z,74.00
2018-08-16T06:22:35.998Z,73.90
2018-08-16T06:25:05.307Z,73.40
2018-08-16T06:27:33.783Z,72.90
2018-08-16T06:30:02.252Z,72.70
2018-08-16T06:32:30.730Z,72.50
2018-08-16T06:34:59.233Z,71.90
2018-08-16T06:37:27.732Z,72.10
2018-08-16T06:39:56.104Z,72.20
2018-08-16T06:42:24.574Z,71.50
2018-08-16T06:44:53.131Z,71.30
2018-08-16T06:47:21.554Z,71.10
2018-08-16T06:49:50.023Z,70.80
2018-08-16T06:52:18.470Z,70.60
2018-08-16T06:54:46.953Z,70.00
2018-08-16T06:57:15.442Z,70.10
2018-08-16T06:59:44.043Z,69.90
2018-08-16T07:02:12.504Z,69.90
2018-08-16T07:04:40.906Z,69.40
2018-08-16T07:07:09.359Z,69.10
2018-08-16T07:09:37.732Z,69.00
2018-08-16T07:12:06.230Z,68.60
2018-08-16T07:14:34.518Z,68.00
2018-08-16T07:17:03.026Z,68.30
2018-08-16T07:19:31.385Z,67.00
2018-08-16T07:21:59.813Z,66.90
2018-08-16T07:24:28.306Z,67.50
2018-08-16T07:26:57.405Z,67.30
2018-08-16T07:29:25.783Z,66.70
2018-08-16T07:31:54.272Z,66.70
2018-08-16T07:34:22.646Z,66.80
2018-08-16T07:36:51.131Z,67.10
2018-08-16T07:39:19.502Z,66.00
2018-08-16T07:41:48.023Z,66.00
2018-08-16T07:44:16.459Z,66.40
2018-08-16T07:46:45.096Z,66.70
2018-08-16T07:49:13.466Z,66.20
2018-08-16T07:51:42.225Z,65.50
2018-08-16T07:54:10.471Z,65.40
2018-08-16T07:56:38.995Z,64.00
2018-08-16T07:59:07.448Z,63.80
2018-08-16T08:01:35.911Z,63.90
2018-08-16T08:04:05.367Z,63.30
2018-08-16T08:06:33.837Z,64.40
2018-08-16T08:09:02.378Z,63.70
2018-08-16T08:11:30.876Z,63.40
2018-08-16T08:13:59.203Z,63.00
2018-08-16T08:16:27.783Z,63.40
2018-08-16T08:18:56.158Z,64.20
2018-08-16T08:21:24.607Z,63.30
2018-08-16T08:23:53.011Z,62.80
2018-08-16T08:26:21.552Z,63.10
2018-08-16T08:28:49.927Z,63.50
2018-08-16T08:31:18.376Z,62.00
2018-08-16T08:33:46.833Z,62.00
2018-08-16T08:36:26.543Z,62.40
2018-08-16T08:38:55.099Z,62.60
2018-08-16T08:41:23.384Z,61.80
2018-08-16T08:44:32.524Z,61.30
2018-08-16T08:47:00.940Z,61.50
2018-08-16T08:49:29.361Z,61.20
2018-08-16T08:51:58.167Z,61.20
2018-08-16T08:54:44.999Z,61.30
2018-08-16T08:57:24.618Z,61.50
2018-08-16T08:59:53.129Z,61.20
2018-08-16T09:02:21.530Z,61.30
2018-08-16T09:04:50.063Z,61.10
2018-08-16T09:07:19.371Z,61.00
2018-08-16T09:11:02.149Z,61.00
2018-08-16T09:13:41.948Z,60.70
2018-08-16T09:16:13.020Z,62.00
2018-08-16T09:18:41.450Z,61.60
2018-08-16T09:21:10.540Z,61.40
2018-08-16T09:23:38.981Z,62.10
2018-08-16T09:26:12.884Z,61.10
2018-08-16T09:28:41.524Z,60.10
2018-08-16T09:31:21.914Z,59.60
2018-08-16T09:34:01.667Z,59.20
2018-08-16T09:36:30.636Z,58.50
2018-08-16T09:38:59.416Z,59.20
2018-08-16T09:41:28.307Z,59.00
2018-08-16T09:43:56.680Z,59.00
2018-08-16T09:47:18.370Z,58.40
2018-08-16T09:49:48.146Z,58.50
2018-08-16T09:52:16.919Z,58.80
2018-08-16T09:54:45.414Z,58.60
2018-08-16T09:57:14.754Z,58.00
2018-08-16T09:59:43.099Z,57.10
2018-08-16T10:02:13.171Z,57.40
2018-08-16T10:04:41.395Z,57.70
2018-08-16T10:07:09.842Z,57.60
2018-08-16T10:09:38.368Z,56.90
2018-08-16T10:12:06.861Z,56.80
2018-08-16T10:14:35.269Z,56.50
2018-08-16T10:17:03.711Z,56.50
2018-08-16T10:19:32.203Z,55.60
2018-08-16T10:22:00.577Z,56.40
2018-08-16T10:24:29.027Z,56.60
2018-08-16T10:26:57.421Z,56.30
2018-08-16T10:29:25.878Z,56.30
2018-08-16T10:31:54.332Z,56.80
2018-08-16T10:34:22.659Z,56.80
2018-08-16T10:36:51.171Z,56.20
2018-08-16T10:39:19.766Z,54.70
2018-08-16T10:41:48.247Z,54.50
2018-08-16T10:44:16.595Z,54.40
2018-08-16T10:47:48.326Z,55.00
2018-08-16T10:50:16.930Z,53.50
2018-08-16T10:52:45.512Z,53.50
2018-08-16T10:55:14.419Z,53.80
2018-08-16T10:57:42.848Z,53.40
2018-08-16T11:00:11.214Z,53.10
2018-08-16T11:02:39.611Z,51.80
2018-08-16T11:05:08.057Z,51.80
2018-08-16T11:07:36.589Z,51.00
2018-08-16T11:10:05.463Z,50.80
2018-08-16T11:12:33.908Z,51.50
2018-08-16T11:15:02.432Z,49.70
2018-08-16T11:17:30.880Z,49.50
2018-08-16T11:19:59.309Z,49.30
2018-08-16T11:22:27.728Z,50.00
2018-08-16T11:24:57.051Z,50.20
2018-08-16T11:27:25.535Z,49.60
2018-08-16T11:29:54.036Z,49.00
2018-08-16T11:32:22.429Z,49.10
2018-08-16T11:34:50.860Z,48.40
2018-08-16T11:37:19.236Z,47.40
2018-08-16T11:39:47.606Z,47.20
2018-08-16T11:42:16.036Z,47.10
2018-08-16T11:44:44.373Z,47.30
2018-08-16T11:47:12.761Z,47.30
2018-08-16T11:49:41.136Z,45.90
2018-08-16T11:52:09.656Z,45.70
2018-08-16T11:54:38.111Z,45.80
2018-08-16T11:57:06.761Z,45.90
2018-08-16T11:59:35.589Z,45.80
2018-08-16T12:02:04.201Z,45.00
2018-08-16T12:04:32.662Z,44.40
2018-08-16T12:07:01.010Z,43.70
2018-08-16T12:09:29.386Z,43.70
2018-08-16T12:11:57.761Z,44.10
2018-08-16T12:14:26.124Z,43.80
2018-08-16T12:16:54.541Z,43.40
2018-08-16T12:19:22.914Z,42.80
2018-08-16T12:21:51.286Z,42.30
2018-08-16T12:24:19.745Z,42.40
2018-08-16T12:26:48.125Z,42.50
2018-08-16T12:29:16.542Z,41.40
2018-08-16T12:31:44.932Z,40.80
2018-08-16T12:34:14.234Z,40.70
2018-08-16T12:36:42.764Z,39.70
2018-08-16T12:39:11.153Z,40.30
2018-08-16T12:41:39.589Z,41.30
2018-08-16T12:44:08.003Z,40.40
2018-08-16T12:46:36.715Z,40.20
2018-08-16T12:49:05.232Z,40.30
2018-08-16T12:51:33.750Z,38.90
2018-08-16T12:54:02.125Z,39.20
2018-08-16T12:56:30.509Z,38.40
2018-08-16T12:58:58.902Z,38.20
2018-08-16T13:01:27.330Z,38.70
2018-08-16T13:03:55.758Z,38.80
2018-08-16T13:06:24.653Z,38.80
2018-08-16T13:08:53.144Z,38.20
2018-08-16T13:11:21.683Z,39.20
2018-08-16T13:13:50.212Z,38.80
2018-08-16T13:16:18.545Z,38.30
2018-08-16T13:18:46.904Z,38.30
2018-08-16T13:21:15.245Z,37.90
2018-08-16T13:23:43.876Z,38.70
2018-08-16T13:26:12.169Z,38.30
2018-08-16T13:28:40.567Z,37.80
2018-08-16T13:31:08.944Z,37.20
2018-08-16T13:33:37.403Z,37.20
2018-08-16T13:36:05.885Z,36.50
2018-08-16T13:38:34.366Z,36.80
2018-08-16T13:41:02.845Z,37.50
2018-08-16T13:43:31.227Z,38.10
2018-08-16T13:45:59.706Z,37.50
2018-08-16T13:48:28.347Z,36.80
2018-08-16T13:50:56.678Z,38.40
2018-08-16T13:53:25.150Z,36.20
2018-08-16T13:55:53.566Z,36.00
2018-08-16T13:58:21.982Z,36.40
2018-08-16T14:00:50.393Z,36.40
2018-08-16T14:03:18.899Z,37.20
2018-08-16T14:05:47.353Z,37.20
2018-08-16T14:08:15.790Z,36.20
2018-08-16T14:10:46.474Z,36.30
2018-08-16T14:13:14.960Z,36.10
2018-08-16T14:15:43.349Z,35.40
2018-08-16T14:18:12.061Z,35.00
2018-08-16T14:20:40.416Z,35.20
2018-08-16T14:23:08.917Z,34.40
2018-08-16T14:25:37.367Z,35.20
2018-08-16T14:28:06.030Z,35.40
2018-08-16T14:30:34.439Z,35.50
2018-08-16T14:33:02.821Z,35.80
2018-08-16T14:35:31.210Z,35.90
2018-08-16T14:37:59.667Z,36.00
2018-08-16T14:40:28.130Z,36.20
2018-08-16T14:42:56.476Z,35.50
2018-08-16T14:45:24.859Z,35.30
2018-08-16T14:47:53.410Z,36.20
2018-08-16T14:50:23.000Z,36.20
2018-08-16T14:52:51.938Z,35.70
2018-08-16T14:55:20.415Z,35.50
2018-08-16T14:57:48.850Z,35.30
2018-08-16T15:00:17.306Z,36.00
2018-08-16T15:02:45.744Z,36.70
2018-08-16T15:05:14.095Z,37.10
2018-08-16T15:07:42.507Z,36.30
2018-08-16T15:10:11.048Z,36.60
2018-08-16T15:12:39.675Z,36.20
2018-08-16T15:15:08.075Z,36.60
2018-08-16T15:17:36.487Z,36.50
2018-08-16T15:20:05.952Z,36.20
2018-08-16T15:22:34.312Z,36.70
2018-08-16T15:25:02.741Z,37.00
2018-08-16T15:27:31.175Z,37.40
2018-08-16T15:29:59.585Z,38.20
2018-08-16T15:32:27.991Z,37.60
2018-08-16T15:34:56.335Z,37.30
2018-08-16T15:37:24.871Z,37.70
2018-08-16T15:39:53.168Z,37.30
2018-08-16T15:42:21.605Z,37.80
2018-08-16T15:44:49.961Z,37.30
2018-08-16T15:47:18.340Z,37.90
2018-08-16T15:49:47.142Z,38.00
2018-08-16T15:52:15.521Z,37.80
2018-08-16T15:54:43.921Z,38.20
2018-08-16T15:57:12.306Z,38.10
2018-08-16T15:59:40.682Z,38.20
2018-08-16T16:02:09.164Z,38.80
2018-08-16T16:04:37.494Z,38.00
2018-08-16T16:07:06.595Z,37.70
2018-08-16T16:09:35.042Z,37.80
2018-08-16T16:12:03.485Z,37.00
2018-08-16T16:14:31.832Z,37.60
2018-08-16T16:17:00.213Z,37.10
2018-08-16T16:19:28.601Z,37.80
2018-08-16T16:21:57.330Z,37.50
2018-08-16T16:24:25.703Z,37.30
2018-08-16T16:26:54.147Z,38.30
2018-08-16T16:29:22.607Z,38.00
2018-08-16T16:31:50.979Z,38.00
2018-08-16T16:34:19.375Z,38.10
2018-08-16T16:36:47.817Z,38.30
2018-08-16T16:39:16.141Z,37.70
2018-08-16T16:41:44.601Z,37.70
2018-08-16T16:44:12.943Z,37.70
2018-08-16T16:46:41.395Z,38.10
2018-08-16T16:49:09.900Z,38.40
2018-08-16T16:51:38.329Z,39.00
2018-08-16T16:54:06.793Z,39.10
2018-08-16T16:56:35.182Z,39.50
2018-08-16T16:59:03.651Z,38.40
2018-08-16T17:01:32.130Z,38.20
2018-08-16T17:04:00.527Z,38.00
2018-08-16T17:06:29.263Z,38.60
2018-08-16T17:08:57.627Z,39.10
2018-08-16T17:11:26.059Z,39.00
2018-08-16T17:13:54.431Z,39.40
2018-08-16T17:16:22.931Z,39.50
2018-08-16T17:18:51.326Z,40.10
2018-08-16T17:21:19.719Z,40.70
2018-08-16T17:23:48.060Z,40.50
2018-08-16T17:26:16.486Z,40.80
2018-08-16T17:28:44.844Z,41.10
2018-08-16T17:31:13.220Z,41.30
2018-08-16T17:33:41.586Z,41.70
2018-08-16T17:36:09.987Z,41.90
2018-08-16T17:38:38.363Z,42.20
2018-08-16T17:41:06.808Z,42.50
2018-08-16T17:43:35.100Z,42.80
2018-08-16T17:46:03.531Z,42.90
2018-08-16T17:48:32.240Z,43.00
2018-08-16T17:51:00.617Z,43.30
2018-08-16T17:53:29.019Z,43.30
2018-08-16T17:55:57.498Z,43.60
2018-08-16T17:58:25.883Z,43.60
2018-08-16T18:00:54.345Z,43.80
2018-08-16T18:03:22.812Z,43.80
2018-08-16T18:05:51.219Z,44.30
2018-08-16T18:08:19.647Z,44.40
2018-08-16T18:10:48.090Z,44.50
2018-08-16T18:13:16.734Z,44.50
2018-08-16T18:15:45.183Z,44.80
2018-08-16T18:18:13.804Z,44.80
2018-08-16T18:20:42.278Z,44.90
2018-08-16T18:23:10.599Z,44.90
2018-08-16T18:25:39.091Z,45.00
2018-08-16T18:28:07.455Z,44.90
2018-08-16T18:30:35.857Z,44.80
2018-08-16T18:33:05.122Z,45.00
2018-08-16T18:35:33.482Z,45.20
2018-08-16T18:38:01.938Z,45.20
2018-08-16T18:40:30.366Z,45.40
2018-08-16T18:42:58.788Z,45.70
2018-08-16T18:45:28.148Z,46.30
2018-08-16T18:47:56.624Z,46.00
2018-08-16T18:50:25.048Z,46.10
2018-08-16T18:52:53.438Z,46.10
2018-08-16T18:55:21.850Z,46.40
2018-08-16T18:57:50.202Z,46.20
2018-08-16T19:00:18.619Z,46.40
2018-08-16T19:02:47.035Z,46.50
2018-08-16T19:05:15.451Z,46.60
2018-08-16T19:07:43.842Z,46.90
2018-08-16T19:10:14.386Z,47.00
2018-08-16T19:12:42.731Z,47.10
2018-08-16T19:15:11.127Z,47.20
2018-08-16T19:17:39.552Z,47.20
2018-08-16T19:20:08.410Z,47.30
2018-08-16T19:22:36.848Z,47.50
2018-08-16T19:25:06.467Z,47.60
2018-08-16T19:27:34.835Z,47.90
2018-08-16T19:30:03.390Z,48.00
2018-08-16T19:32:31.796Z,48.10
2018-08-16T19:35:00.260Z,48.40
2018-08-16T19:37:28.636Z,48.20
2018-08-16T19:39:57.006Z,48.30
2018-08-16T19:42:25.412Z,48.50
2018-08-16T19:44:53.810Z,48.70
2018-08-16T19:47:22.371Z,48.70
2018-08-16T19:49:50.754Z,48.80
2018-08-16T19:52:19.099Z,48.80
2018-08-16T19:54:47.459Z,49.00
2018-08-16T19:57:15.914Z,49.00
2018-08-16T19:59:44.378Z,49.10
2018-08-16T20:02:13.106Z,49.10
2018-08-16T20:04:41.449Z,49.20
2018-08-16T20:07:09.970Z,49.40
2018-08-16T20:09:38.239Z,49.40
2018-08-16T20:12:06.891Z,49.70
2018-08-16T20:14:35.271Z,49.90
2018-08-16T20:17:03.711Z,50.00
2018-08-16T20:19:32.182Z,50.20
2018-08-16T20:22:00.539Z,50.30
2018-08-16T20:24:28.889Z,50.40
2018-08-16T20:26:57.271Z,50.40
2018-08-16T20:29:25.643Z,50.60
2018-08-16T20:31:54.006Z,50.80
2018-08-16T20:34:22.401Z,51.10
2018-08-16T20:36:50.787Z,51.20
2018-08-16T20:39:19.203Z,51.40
2018-08-16T20:41:47.644Z,51.30
2018-08-16T20:44:16.005Z,51.30
2018-08-16T20:46:44.413Z,51.40
2018-08-16T20:49:12.967Z,51.60
2018-08-16T20:51:41.375Z,51.70
2018-08-16T20:54:09.751Z,52.00
2018-08-16T20:56:38.481Z,51.90
2018-08-16T20:59:07.215Z,52.30
2018-08-16T21:01:35.588Z,52.30
2018-08-16T21:04:04.042Z,52.50
2018-08-16T21:06:32.528Z,52.60
2018-08-16T21:09:00.904Z,52.80
2018-08-16T21:11:29.360Z,52.70
2018-08-16T21:13:57.763Z,52.90
2018-08-16T21:16:26.169Z,53.10
2018-08-16T21:18:54.613Z,53.20
2018-08-16T21:21:23.007Z,53.50
2018-08-16T21:23:51.472Z,53.60
2018-08-16T21:26:19.894Z,53.70
2018-08-16T21:28:48.227Z,53.70
2018-08-16T21:31:16.623Z,53.80
2018-08-16T21:33:45.088Z,53.80
2018-08-16T21:36:14.554Z,53.70
2018-08-16T21:38:42.912Z,53.90
2018-08-16T21:41:11.320Z,54.10
2018-08-16T21:43:39.663Z,54.20
2018-08-16T21:46:08.039Z,54.30
2018-08-16T21:48:36.482Z,54.30
2018-08-16T21:51:04.885Z,54.50
2018-08-16T21:53:33.252Z,54.80
2018-08-16T21:56:02.602Z,55.10
2018-08-16T21:58:30.931Z,55.40
2018-08-16T22:01:04.542Z,55.60
2018-08-16T22:03:33.308Z,55.80
2018-08-16T22:06:04.579Z,55.80
2018-08-16T22:08:43.206Z,56.00
2018-08-16T22:11:11.772Z,56.10
2018-08-16T22:13:40.711Z,56.10
2018-08-16T22:16:09.235Z,56.20
2018-08-16T22:18:38.051Z,56.30
2018-08-16T22:21:06.854Z,56.50
2018-08-16T22:23:35.329Z,56.60
2018-08-16T22:26:03.779Z,56.70
2018-08-16T22:28:32.166Z,56.80
2018-08-16T22:31:00.931Z,57.00
2018-08-16T22:33:29.719Z,57.10
2018-08-16T22:35:58.135Z,57.30
2018-08-16T22:38:26.539Z,57.40
2018-08-16T22:40:54.929Z,57.50
2018-08-16T22:43:23.354Z,57.70
2018-08-16T22:45:51.747Z,57.80
2018-08-16T22:48:20.175Z,58.00
2018-08-16T22:50:48.582Z,58.00
2018-08-16T22:53:17.254Z,58.10
2018-08-16T22:55:45.634Z,58.20
2018-08-16T22:58:14.011Z,58.40
2018-08-16T23:00:42.459Z,58.40
2018-08-16T23:03:10.838Z,58.60
2018-08-16T23:05:39.366Z,58.60
2018-08-16T23:08:07.922Z,58.60
2018-08-16T23:10:36.517Z,58.70
2018-08-16T23:13:04.867Z,58.80
2018-08-16T23:15:33.291Z,59.30
2018-08-16T23:18:01.655Z,58.90
2018-08-16T23:20:30.056Z,59.10
2018-08-16T23:22:58.468Z,59.20
2018-08-16T23:25:26.866Z,59.10
2018-08-16T23:27:55.266Z,59.00
2018-08-16T23:30:23.623Z,59.10
2018-08-16T23:32:51.984Z,59.30
2018-08-16T23:35:20.413Z,59.40
2018-08-16T23:37:48.802Z,59.40
2018-08-16T23:40:17.227Z,59.30
2018-08-16T23:42:45.594Z,59.40
2018-08-16T23:45:13.970Z,59.40
2018-08-16T23:47:46.898Z,59.40
2018-08-16T23:50:15.298Z,59.50
2018-08-16T23:52:43.753Z,59.50
2018-08-16T23:55:12.131Z,59.50
2018-08-16T23:57:40.518Z,59.60
